sensor_id;sensor_type;location;lat;lon;timestamp;noise_LAeq;noise_LA_min;noise_LA_max;noise_LA01;noise_LA95
53702;Laerm;39594;52.194;9.886;2023-05-07T00:02:01;5.00;5.00;5.00;;
53702;Laerm;39594;52.194;9.886;2023-05-07T00:04:26;5.00;5.00;5.00;;
53702;Laerm;39594;52.194;9.886;2023-05-07T00:06:52;5.00;5.00;5.00;;
53702;Laerm;39594;52.194;9.886;2023-05-07T00:09:17;27.58;5.00;54.98;;
53702;Laerm;39594;52.194;9.886;2023-05-07T00:11:42;84.82;5.00;110.23;;
53702;Laerm;39594;52.194;9.886;2023-05-07T00:14:07;5.00;5.00;5.00;;
53702;Laerm;39594;52.194;9.886;2023-05-07T00:16:32;5.00;5.00;5.00;;
53702;Laerm;39594;52.194;9.886;2023-05-07T00:18:58;73.09;5.00;105.23;;
53702;Laerm;39594;52.194;9.886;2023-05-07T00:21:23;5.00;5.00;5.00;;
53702;Laerm;39594;52.194;9.886;2023-05-07T00:23:51;78.96;5.00;110.67;;
53702;Laerm;39594;52.194;9.886;2023-05-07T00:26:16;5.00;5.00;5.00;;
53702;Laerm;39594;52.194;9.886;2023-05-07T00:28:41;5.00;5.00;5.00;;
53702;Laerm;39594;52.194;9.886;2023-05-07T00:31:07;5.00;5.00;5.00;;
53702;Laerm;39594;52.194;9.886;2023-05-07T00:33:32;5.00;5.00;5.00;;
53702;Laerm;39594;52.194;9.886;2023-05-07T00:35:57;5.00;5.00;5.00;;
53702;Laerm;39594;52.194;9.886;2023-05-07T00:38:22;5.00;5.00;5.00;;
53702;Laerm;39594;52.194;9.886;2023-05-07T00:40:47;5.00;5.00;5.00;;
53702;Laerm;39594;52.194;9.886;2023-05-07T00:43:13;5.00;5.00;5.00;;
53702;Laerm;39594;52.194;9.886;2023-05-07T00:45:38;5.00;5.00;5.00;;
53702;Laerm;39594;52.194;9.886;2023-05-07T00:48:03;5.00;5.00;5.00;;
53702;Laerm;39594;52.194;9.886;2023-05-07T00:50:29;5.00;5.00;5.00;;
53702;Laerm;39594;52.194;9.886;2023-05-07T00:52:54;5.00;5.00;5.00;;
53702;Laerm;39594;52.194;9.886;2023-05-07T00:55:21;5.00;5.00;5.00;;
53702;Laerm;39594;52.194;9.886;2023-05-07T00:57:46;5.00;5.00;5.00;;
53702;Laerm;39594;52.194;9.886;2023-05-07T01:00:12;5.00;5.00;5.00;;
53702;Laerm;39594;52.194;9.886;2023-05-07T01:02:41;91.92;5.00;112.35;;
53702;Laerm;39594;52.194;9.886;2023-05-07T01:05:07;5.00;5.00;5.00;;
53702;Laerm;39594;52.194;9.886;2023-05-07T01:07:34;5.00;5.00;5.00;;
53702;Laerm;39594;52.194;9.886;2023-05-07T01:10:00;5.00;5.00;5.00;;
53702;Laerm;39594;52.194;9.886;2023-05-07T01:12:25;5.00;5.00;5.00;;
53702;Laerm;39594;52.194;9.886;2023-05-07T01:14:52;5.00;5.00;5.00;;
53702;Laerm;39594;52.194;9.886;2023-05-07T01:17:17;5.00;5.00;5.00;;
53702;Laerm;39594;52.194;9.886;2023-05-07T01:19:43;5.00;5.00;5.00;;
53702;Laerm;39594;52.194;9.886;2023-05-07T01:22:10;5.00;5.00;5.00;;
53702;Laerm;39594;52.194;9.886;2023-05-07T01:24:36;68.63;5.00;100.99;;
53702;Laerm;39594;52.194;9.886;2023-05-07T01:27:01;5.00;5.00;5.00;;
53702;Laerm;39594;52.194;9.886;2023-05-07T01:29:27;5.00;5.00;5.00;;
53702;Laerm;39594;52.194;9.886;2023-05-07T01:31:53;5.00;5.00;5.00;;
53702;Laerm;39594;52.194;9.886;2023-05-07T01:34:19;5.00;5.00;5.00;;
53702;Laerm;39594;52.194;9.886;2023-05-07T01:36:45;5.00;5.00;5.00;;
53702;Laerm;39594;52.194;9.886;2023-05-07T01:39:11;5.00;5.00;5.00;;
53702;Laerm;39594;52.194;9.886;2023-05-07T01:41:37;78.81;5.00;109.36;;
53702;Laerm;39594;52.194;9.886;2023-05-07T01:44:03;5.00;5.00;5.00;;
53702;Laerm;39594;52.194;9.886;2023-05-07T01:46:28;5.00;5.00;5.00;;
53702;Laerm;39594;52.194;9.886;2023-05-07T01:48:54;5.00;5.00;5.00;;
53702;Laerm;39594;52.194;9.886;2023-05-07T01:51:20;5.00;5.00;5.00;;
53702;Laerm;39594;52.194;9.886;2023-05-07T01:53:46;5.00;5.00;5.00;;
53702;Laerm;39594;52.194;9.886;2023-05-07T01:56:15;5.00;5.00;5.00;;
53702;Laerm;39594;52.194;9.886;2023-05-07T01:58:40;5.00;5.00;5.00;;
53702;Laerm;39594;52.194;9.886;2023-05-07T02:01:05;5.00;5.00;5.00;;
53702;Laerm;39594;52.194;9.886;2023-05-07T02:03:31;5.00;5.00;5.00;;
53702;Laerm;39594;52.194;9.886;2023-05-07T02:05:56;5.00;5.00;5.00;;
53702;Laerm;39594;52.194;9.886;2023-05-07T02:08:21;5.00;5.00;5.00;;
53702;Laerm;39594;52.194;9.886;2023-05-07T02:10:46;5.00;5.00;5.00;;
53702;Laerm;39594;52.194;9.886;2023-05-07T02:13:12;5.00;5.00;5.00;;
53702;Laerm;39594;52.194;9.886;2023-05-07T02:15:37;5.00;5.00;5.00;;
53702;Laerm;39594;52.194;9.886;2023-05-07T02:18:03;5.00;5.00;5.00;;
53702;Laerm;39594;52.194;9.886;2023-05-07T02:20:29;5.00;5.00;5.00;;
53702;Laerm;39594;52.194;9.886;2023-05-07T02:22:54;5.00;5.00;5.00;;
53702;Laerm;39594;52.194;9.886;2023-05-07T02:25:19;5.00;5.00;5.00;;
53702;Laerm;39594;52.194;9.886;2023-05-07T02:27:44;5.00;5.00;5.00;;
53702;Laerm;39594;52.194;9.886;2023-05-07T02:30:10;5.00;5.00;5.00;;
53702;Laerm;39594;52.194;9.886;2023-05-07T02:32:35;5.00;5.00;5.00;;
53702;Laerm;39594;52.194;9.886;2023-05-07T02:35:00;5.00;5.00;5.00;;
53702;Laerm;39594;52.194;9.886;2023-05-07T02:37:25;5.00;5.00;5.00;;
53702;Laerm;39594;52.194;9.886;2023-05-07T02:39:50;5.00;5.00;5.00;;
53702;Laerm;39594;52.194;9.886;2023-05-07T02:42:16;5.00;5.00;5.00;;
53702;Laerm;39594;52.194;9.886;2023-05-07T02:44:41;5.00;5.00;5.00;;
53702;Laerm;39594;52.194;9.886;2023-05-07T02:47:09;5.00;5.00;5.00;;
53702;Laerm;39594;52.194;9.886;2023-05-07T02:49:35;5.00;5.00;5.00;;
53702;Laerm;39594;52.194;9.886;2023-05-07T02:52:00;5.00;5.00;5.00;;
53702;Laerm;39594;52.194;9.886;2023-05-07T02:54:25;5.00;5.00;5.00;;
53702;Laerm;39594;52.194;9.886;2023-05-07T02:56:51;5.00;5.00;5.00;;
53702;Laerm;39594;52.194;9.886;2023-05-07T02:59:16;5.00;5.00;5.00;;
53702;Laerm;39594;52.194;9.886;2023-05-07T03:01:41;5.00;5.00;5.00;;
53702;Laerm;39594;52.194;9.886;2023-05-07T03:04:08;5.00;5.00;5.00;;
53702;Laerm;39594;52.194;9.886;2023-05-07T03:06:33;5.00;5.00;5.00;;
53702;Laerm;39594;52.194;9.886;2023-05-07T03:08:59;5.00;5.00;5.00;;
53702;Laerm;39594;52.194;9.886;2023-05-07T03:11:24;5.00;5.00;5.00;;
53702;Laerm;39594;52.194;9.886;2023-05-07T03:13:50;5.00;5.00;5.00;;
53702;Laerm;39594;52.194;9.886;2023-05-07T03:16:15;5.00;5.00;5.00;;
53702;Laerm;39594;52.194;9.886;2023-05-07T03:18:40;5.00;5.00;5.00;;
53702;Laerm;39594;52.194;9.886;2023-05-07T03:21:06;5.00;5.00;5.00;;
53702;Laerm;39594;52.194;9.886;2023-05-07T03:23:31;5.00;5.00;5.00;;
53702;Laerm;39594;52.194;9.886;2023-05-07T03:25:56;5.00;5.00;5.00;;
53702;Laerm;39594;52.194;9.886;2023-05-07T03:28:21;5.00;5.00;5.00;;
53702;Laerm;39594;52.194;9.886;2023-05-07T03:30:47;5.00;5.00;5.00;;
53702;Laerm;39594;52.194;9.886;2023-05-07T03:33:12;5.00;5.00;5.00;;
53702;Laerm;39594;52.194;9.886;2023-05-07T03:35:37;5.00;5.00;5.00;;
53702;Laerm;39594;52.194;9.886;2023-05-07T03:38:02;5.00;5.00;5.00;;
53702;Laerm;39594;52.194;9.886;2023-05-07T03:40:27;5.00;5.00;5.00;;
53702;Laerm;39594;52.194;9.886;2023-05-07T03:42:53;5.00;5.00;5.00;;
53702;Laerm;39594;52.194;9.886;2023-05-07T03:45:18;5.00;5.00;5.00;;
53702;Laerm;39594;52.194;9.886;2023-05-07T03:47:43;5.00;5.00;5.00;;
53702;Laerm;39594;52.194;9.886;2023-05-07T03:50:08;5.00;5.00;5.00;;
53702;Laerm;39594;52.194;9.886;2023-05-07T03:52:35;5.00;5.00;5.00;;
53702;Laerm;39594;52.194;9.886;2023-05-07T03:55:00;5.00;5.00;5.00;;
53702;Laerm;39594;52.194;9.886;2023-05-07T03:57:25;5.00;5.00;5.00;;
53702;Laerm;39594;52.194;9.886;2023-05-07T03:59:50;5.00;5.00;5.00;;
53702;Laerm;39594;52.194;9.886;2023-05-07T04:02:16;5.00;5.00;5.00;;
53702;Laerm;39594;52.194;9.886;2023-05-07T04:04:41;5.00;5.00;5.00;;
53702;Laerm;39594;52.194;9.886;2023-05-07T04:07:06;5.00;5.00;5.00;;
53702;Laerm;39594;52.194;9.886;2023-05-07T04:09:32;5.00;5.00;5.00;;
53702;Laerm;39594;52.194;9.886;2023-05-07T04:11:57;5.00;5.00;5.00;;
53702;Laerm;39594;52.194;9.886;2023-05-07T04:14:22;5.00;5.00;5.00;;
53702;Laerm;39594;52.194;9.886;2023-05-07T04:16:47;5.00;5.00;5.00;;
53702;Laerm;39594;52.194;9.886;2023-05-07T04:19:13;5.00;5.00;5.00;;
53702;Laerm;39594;52.194;9.886;2023-05-07T04:21:38;5.00;5.00;5.00;;
53702;Laerm;39594;52.194;9.886;2023-05-07T04:24:03;5.00;5.00;5.00;;
53702;Laerm;39594;52.194;9.886;2023-05-07T04:26:28;5.00;5.00;5.00;;
53702;Laerm;39594;52.194;9.886;2023-05-07T04:28:54;5.00;5.00;5.00;;
53702;Laerm;39594;52.194;9.886;2023-05-07T04:31:19;5.00;5.00;5.00;;
53702;Laerm;39594;52.194;9.886;2023-05-07T04:33:45;5.00;5.00;5.00;;
53702;Laerm;39594;52.194;9.886;2023-05-07T04:36:10;5.00;5.00;5.00;;
53702;Laerm;39594;52.194;9.886;2023-05-07T04:38:35;5.00;5.00;5.00;;
53702;Laerm;39594;52.194;9.886;2023-05-07T04:41:04;5.00;5.00;5.00;;
53702;Laerm;39594;52.194;9.886;2023-05-07T04:43:30;5.00;5.00;5.00;;
53702;Laerm;39594;52.194;9.886;2023-05-07T04:45:55;5.00;5.00;5.00;;
53702;Laerm;39594;52.194;9.886;2023-05-07T04:48:20;5.00;5.00;5.00;;
53702;Laerm;39594;52.194;9.886;2023-05-07T04:50:49;5.00;5.00;5.00;;
53702;Laerm;39594;52.194;9.886;2023-05-07T04:53:14;5.00;5.00;5.00;;
53702;Laerm;39594;52.194;9.886;2023-05-07T04:55:40;5.00;5.00;5.00;;
53702;Laerm;39594;52.194;9.886;2023-05-07T04:58:05;5.00;5.00;5.00;;
53702;Laerm;39594;52.194;9.886;2023-05-07T05:00:31;5.00;5.00;5.00;;
53702;Laerm;39594;52.194;9.886;2023-05-07T05:02:59;5.00;5.00;5.00;;
53702;Laerm;39594;52.194;9.886;2023-05-07T05:05:24;5.00;5.00;5.00;;
53702;Laerm;39594;52.194;9.886;2023-05-07T05:07:49;5.00;5.00;5.00;;
53702;Laerm;39594;52.194;9.886;2023-05-07T05:10:16;5.00;5.00;5.00;;
53702;Laerm;39594;52.194;9.886;2023-05-07T05:12:41;5.00;5.00;5.00;;
53702;Laerm;39594;52.194;9.886;2023-05-07T05:15:07;5.00;5.00;5.00;;
53702;Laerm;39594;52.194;9.886;2023-05-07T05:17:32;5.00;5.00;5.00;;
53702;Laerm;39594;52.194;9.886;2023-05-07T05:19:59;5.00;5.00;5.00;;
53702;Laerm;39594;52.194;9.886;2023-05-07T05:22:25;5.00;5.00;5.00;;
53702;Laerm;39594;52.194;9.886;2023-05-07T05:24:50;5.00;5.00;5.00;;
53702;Laerm;39594;52.194;9.886;2023-05-07T05:27:15;5.00;5.00;5.00;;
53702;Laerm;39594;52.194;9.886;2023-05-07T05:29:41;5.00;5.00;5.00;;
53702;Laerm;39594;52.194;9.886;2023-05-07T05:32:06;5.00;5.00;5.00;;
53702;Laerm;39594;52.194;9.886;2023-05-07T05:34:31;5.00;5.00;5.00;;
53702;Laerm;39594;52.194;9.886;2023-05-07T05:36:58;5.00;5.00;5.00;;
53702;Laerm;39594;52.194;9.886;2023-05-07T05:39:23;5.00;5.00;5.00;;
53702;Laerm;39594;52.194;9.886;2023-05-07T05:41:49;5.00;5.00;5.00;;
53702;Laerm;39594;52.194;9.886;2023-05-07T05:44:14;5.00;5.00;5.00;;
53702;Laerm;39594;52.194;9.886;2023-05-07T05:46:39;5.00;5.00;5.00;;
53702;Laerm;39594;52.194;9.886;2023-05-07T05:49:05;5.00;5.00;5.00;;
53702;Laerm;39594;52.194;9.886;2023-05-07T05:51:30;5.00;5.00;5.00;;
53702;Laerm;39594;52.194;9.886;2023-05-07T05:53:55;5.00;5.00;5.00;;
53702;Laerm;39594;52.194;9.886;2023-05-07T05:56:21;5.00;5.00;5.00;;
53702;Laerm;39594;52.194;9.886;2023-05-07T05:58:46;5.00;5.00;5.00;;
53702;Laerm;39594;52.194;9.886;2023-05-07T06:01:11;5.00;5.00;5.00;;
53702;Laerm;39594;52.194;9.886;2023-05-07T06:03:37;5.00;5.00;5.00;;
53702;Laerm;39594;52.194;9.886;2023-05-07T06:06:02;5.00;5.00;5.00;;
53702;Laerm;39594;52.194;9.886;2023-05-07T06:08:30;5.00;5.00;5.00;;
53702;Laerm;39594;52.194;9.886;2023-05-07T06:10:56;5.00;5.00;5.00;;
53702;Laerm;39594;52.194;9.886;2023-05-07T06:13:21;5.00;5.00;5.00;;
53702;Laerm;39594;52.194;9.886;2023-05-07T06:15:46;5.00;5.00;5.00;;
53702;Laerm;39594;52.194;9.886;2023-05-07T06:18:12;5.00;5.00;5.00;;
53702;Laerm;39594;52.194;9.886;2023-05-07T06:20:37;5.00;5.00;5.00;;
53702;Laerm;39594;52.194;9.886;2023-05-07T06:23:02;5.00;5.00;5.00;;
53702;Laerm;39594;52.194;9.886;2023-05-07T06:25:27;5.00;5.00;5.00;;
53702;Laerm;39594;52.194;9.886;2023-05-07T06:27:52;5.00;5.00;5.00;;
53702;Laerm;39594;52.194;9.886;2023-05-07T06:30:17;5.00;5.00;5.00;;
53702;Laerm;39594;52.194;9.886;2023-05-07T06:32:43;5.00;5.00;5.00;;
53702;Laerm;39594;52.194;9.886;2023-05-07T06:35:08;5.00;5.00;5.00;;
53702;Laerm;39594;52.194;9.886;2023-05-07T06:37:33;5.00;5.00;5.00;;
53702;Laerm;39594;52.194;9.886;2023-05-07T06:39:58;5.00;5.00;5.00;;
53702;Laerm;39594;52.194;9.886;2023-05-07T06:42:24;5.00;5.00;5.00;;
53702;Laerm;39594;52.194;9.886;2023-05-07T06:44:49;5.00;5.00;5.00;;
53702;Laerm;39594;52.194;9.886;2023-05-07T06:47:14;5.00;5.00;5.00;;
53702;Laerm;39594;52.194;9.886;2023-05-07T06:49:39;5.00;5.00;5.00;;
53702;Laerm;39594;52.194;9.886;2023-05-07T06:52:05;5.00;5.00;5.00;;
53702;Laerm;39594;52.194;9.886;2023-05-07T06:54:30;5.00;5.00;5.00;;
53702;Laerm;39594;52.194;9.886;2023-05-07T06:56:55;5.00;5.00;5.00;;
53702;Laerm;39594;52.194;9.886;2023-05-07T06:59:20;5.00;5.00;5.00;;
53702;Laerm;39594;52.194;9.886;2023-05-07T07:01:46;5.00;5.00;5.00;;
53702;Laerm;39594;52.194;9.886;2023-05-07T07:04:11;5.00;5.00;5.00;;
53702;Laerm;39594;52.194;9.886;2023-05-07T07:06:36;5.00;5.00;5.00;;
53702;Laerm;39594;52.194;9.886;2023-05-07T07:09:02;5.00;5.00;5.00;;
53702;Laerm;39594;52.194;9.886;2023-05-07T07:11:27;5.00;5.00;5.00;;
53702;Laerm;39594;52.194;9.886;2023-05-07T07:13:52;5.00;5.00;5.00;;
53702;Laerm;39594;52.194;9.886;2023-05-07T07:16:19;5.00;5.00;5.00;;
53702;Laerm;39594;52.194;9.886;2023-05-07T07:18:45;5.00;5.00;5.00;;
53702;Laerm;39594;52.194;9.886;2023-05-07T07:21:10;5.00;5.00;5.00;;
53702;Laerm;39594;52.194;9.886;2023-05-07T07:23:35;5.00;5.00;5.00;;
53702;Laerm;39594;52.194;9.886;2023-05-07T07:26:00;5.00;5.00;5.00;;
53702;Laerm;39594;52.194;9.886;2023-05-07T07:28:26;5.00;5.00;5.00;;
53702;Laerm;39594;52.194;9.886;2023-05-07T07:30:51;5.00;5.00;5.00;;
53702;Laerm;39594;52.194;9.886;2023-05-07T07:33:16;5.00;5.00;5.00;;
53702;Laerm;39594;52.194;9.886;2023-05-07T07:35:41;5.00;5.00;5.00;;
53702;Laerm;39594;52.194;9.886;2023-05-07T07:38:07;5.00;5.00;5.00;;
53702;Laerm;39594;52.194;9.886;2023-05-07T07:40:34;5.00;5.00;5.00;;
53702;Laerm;39594;52.194;9.886;2023-05-07T07:42:59;5.00;5.00;5.00;;
53702;Laerm;39594;52.194;9.886;2023-05-07T07:45:26;5.00;5.00;5.00;;
53702;Laerm;39594;52.194;9.886;2023-05-07T07:47:51;5.00;5.00;5.00;;
53702;Laerm;39594;52.194;9.886;2023-05-07T07:50:16;5.00;5.00;5.00;;
53702;Laerm;39594;52.194;9.886;2023-05-07T07:52:41;5.00;5.00;5.00;;
53702;Laerm;39594;52.194;9.886;2023-05-07T07:55:07;5.00;5.00;5.00;;
53702;Laerm;39594;52.194;9.886;2023-05-07T07:57:32;5.00;5.00;5.00;;
53702;Laerm;39594;52.194;9.886;2023-05-07T07:59:57;5.00;5.00;5.00;;
53702;Laerm;39594;52.194;9.886;2023-05-07T08:02:23;5.00;5.00;5.00;;
53702;Laerm;39594;52.194;9.886;2023-05-07T08:04:48;5.00;5.00;5.00;;
53702;Laerm;39594;52.194;9.886;2023-05-07T08:07:13;5.00;5.00;5.00;;
53702;Laerm;39594;52.194;9.886;2023-05-07T08:09:38;5.00;5.00;5.00;;
53702;Laerm;39594;52.194;9.886;2023-05-07T08:12:04;5.00;5.00;5.00;;
53702;Laerm;39594;52.194;9.886;2023-05-07T08:14:29;5.00;5.00;5.00;;
53702;Laerm;39594;52.194;9.886;2023-05-07T08:16:55;5.00;5.00;5.00;;
53702;Laerm;39594;52.194;9.886;2023-05-07T08:19:20;5.00;5.00;5.00;;
53702;Laerm;39594;52.194;9.886;2023-05-07T08:21:46;5.00;5.00;5.00;;
53702;Laerm;39594;52.194;9.886;2023-05-07T08:24:13;5.00;5.00;5.00;;
53702;Laerm;39594;52.194;9.886;2023-05-07T08:26:38;5.00;5.00;5.00;;
53702;Laerm;39594;52.194;9.886;2023-05-07T08:29:04;5.00;5.00;5.00;;
53702;Laerm;39594;52.194;9.886;2023-05-07T08:31:29;5.00;5.00;5.00;;
53702;Laerm;39594;52.194;9.886;2023-05-07T08:33:55;5.00;5.00;5.00;;
53702;Laerm;39594;52.194;9.886;2023-05-07T08:36:20;5.00;5.00;5.00;;
53702;Laerm;39594;52.194;9.886;2023-05-07T08:38:45;5.00;5.00;5.00;;
53702;Laerm;39594;52.194;9.886;2023-05-07T08:41:10;5.00;5.00;5.00;;
53702;Laerm;39594;52.194;9.886;2023-05-07T08:43:36;5.00;5.00;5.00;;
53702;Laerm;39594;52.194;9.886;2023-05-07T08:46:02;5.00;5.00;5.00;;
53702;Laerm;39594;52.194;9.886;2023-05-07T08:48:29;5.00;5.00;5.00;;
53702;Laerm;39594;52.194;9.886;2023-05-07T08:50:57;5.00;5.00;5.00;;
53702;Laerm;39594;52.194;9.886;2023-05-07T08:53:22;5.00;5.00;5.00;;
53702;Laerm;39594;52.194;9.886;2023-05-07T08:55:47;5.00;5.00;5.00;;
53702;Laerm;39594;52.194;9.886;2023-05-07T08:58:13;5.00;5.00;5.00;;
53702;Laerm;39594;52.194;9.886;2023-05-07T09:00:39;5.00;5.00;5.00;;
53702;Laerm;39594;52.194;9.886;2023-05-07T09:03:05;5.00;5.00;5.00;;
53702;Laerm;39594;52.194;9.886;2023-05-07T09:05:30;5.00;5.00;5.00;;
53702;Laerm;39594;52.194;9.886;2023-05-07T09:07:58;5.00;5.00;5.00;;
53702;Laerm;39594;52.194;9.886;2023-05-07T09:10:23;5.00;5.00;5.00;;
53702;Laerm;39594;52.194;9.886;2023-05-07T09:12:48;5.00;5.00;5.00;;
53702;Laerm;39594;52.194;9.886;2023-05-07T09:15:14;5.00;5.00;5.00;;
53702;Laerm;39594;52.194;9.886;2023-05-07T09:17:39;5.00;5.00;5.00;;
53702;Laerm;39594;52.194;9.886;2023-05-07T09:20:06;5.00;5.00;5.00;;
53702;Laerm;39594;52.194;9.886;2023-05-07T09:22:32;5.00;5.00;5.00;;
53702;Laerm;39594;52.194;9.886;2023-05-07T09:24:57;94.30;5.00;114.93;;
53702;Laerm;39594;52.194;9.886;2023-05-07T09:27:23;76.58;5.00;103.87;;
53702;Laerm;39594;52.194;9.886;2023-05-07T09:29:48;65.02;5.00;96.78;;
53702;Laerm;39594;52.194;9.886;2023-05-07T09:32:13;65.84;5.00;100.57;;
53702;Laerm;39594;52.194;9.886;2023-05-07T09:34:39;99.17;5.00;114.39;;
53702;Laerm;39594;52.194;9.886;2023-05-07T09:37:05;93.06;5.00;112.76;;
53702;Laerm;39594;52.194;9.886;2023-05-07T09:39:40;5.00;5.00;5.00;;
53702;Laerm;39594;52.194;9.886;2023-05-07T09:42:06;5.00;5.00;5.00;;
53702;Laerm;39594;52.194;9.886;2023-05-07T09:44:31;5.00;5.00;5.00;;
53702;Laerm;39594;52.194;9.886;2023-05-07T09:46:57;5.00;5.00;5.00;;
53702;Laerm;39594;52.194;9.886;2023-05-07T09:49:24;5.00;5.00;5.00;;
53702;Laerm;39594;52.194;9.886;2023-05-07T09:51:54;5.00;5.00;5.00;;
53702;Laerm;39594;52.194;9.886;2023-05-07T09:54:20;5.00;5.00;5.00;;
53702;Laerm;39594;52.194;9.886;2023-05-07T09:56:45;5.00;5.00;5.00;;
53702;Laerm;39594;52.194;9.886;2023-05-07T09:59:14;5.00;5.00;5.00;;
53702;Laerm;39594;52.194;9.886;2023-05-07T10:01:40;5.00;5.00;5.00;;
53702;Laerm;39594;52.194;9.886;2023-05-07T10:04:06;5.00;5.00;5.00;;
53702;Laerm;39594;52.194;9.886;2023-05-07T10:06:33;5.00;5.00;5.00;;
53702;Laerm;39594;52.194;9.886;2023-05-07T10:08:59;5.00;5.00;5.00;;
53702;Laerm;39594;52.194;9.886;2023-05-07T10:11:24;5.00;5.00;5.00;;
53702;Laerm;39594;52.194;9.886;2023-05-07T10:13:49;5.00;5.00;5.00;;
53702;Laerm;39594;52.194;9.886;2023-05-07T10:16:16;5.00;5.00;5.00;;
53702;Laerm;39594;52.194;9.886;2023-05-07T10:18:42;5.00;5.00;5.00;;
53702;Laerm;39594;52.194;9.886;2023-05-07T10:21:08;5.00;5.00;5.00;;
53702;Laerm;39594;52.194;9.886;2023-05-07T10:23:35;5.00;5.00;5.00;;
53702;Laerm;39594;52.194;9.886;2023-05-07T10:26:02;5.00;5.00;5.00;;
53702;Laerm;39594;52.194;9.886;2023-05-07T10:28:28;5.00;5.00;5.00;;
53702;Laerm;39594;52.194;9.886;2023-05-07T10:31:08;5.00;5.00;5.00;;
53702;Laerm;39594;52.194;9.886;2023-05-07T10:33:40;5.00;5.00;5.00;;
53702;Laerm;39594;52.194;9.886;2023-05-07T10:36:06;5.00;5.00;5.00;;
53702;Laerm;39594;52.194;9.886;2023-05-07T10:38:32;5.00;5.00;5.00;;
53702;Laerm;39594;52.194;9.886;2023-05-07T10:40:58;5.00;5.00;5.00;;
53702;Laerm;39594;52.194;9.886;2023-05-07T10:43:23;5.00;5.00;5.00;;
53702;Laerm;39594;52.194;9.886;2023-05-07T10:51:33;5.00;5.00;5.00;;
53702;Laerm;39594;52.194;9.886;2023-05-07T10:56:36;5.00;5.00;5.00;;
53702;Laerm;39594;52.194;9.886;2023-05-07T11:04:20;5.00;5.00;5.00;;
53702;Laerm;39594;52.194;9.886;2023-05-07T11:07:34;5.00;5.00;5.00;;
53702;Laerm;39594;52.194;9.886;2023-05-07T11:15:02;5.00;5.00;5.00;;
53702;Laerm;39594;52.194;9.886;2023-05-07T11:17:28;5.00;5.00;5.00;;
53702;Laerm;39594;52.194;9.886;2023-05-07T11:19:56;5.00;5.00;5.00;;
53702;Laerm;39594;52.194;9.886;2023-05-07T11:22:35;5.00;5.00;5.00;;
53702;Laerm;39594;52.194;9.886;2023-05-07T11:25:04;85.72;5.00;113.68;;
53702;Laerm;39594;52.194;9.886;2023-05-07T11:27:30;82.61;5.00;111.64;;
53702;Laerm;39594;52.194;9.886;2023-05-07T11:29:56;5.00;5.00;5.00;;
53702;Laerm;39594;52.194;9.886;2023-05-07T11:34:53;5.00;5.00;5.00;;
53702;Laerm;39594;52.194;9.886;2023-05-07T11:37:18;5.00;5.00;5.00;;
53702;Laerm;39594;52.194;9.886;2023-05-07T11:39:44;5.00;5.00;5.00;;
53702;Laerm;39594;52.194;9.886;2023-05-07T11:45:10;5.00;5.00;5.00;;
53702;Laerm;39594;52.194;9.886;2023-05-07T11:47:35;5.00;5.00;5.00;;
53702;Laerm;39594;52.194;9.886;2023-05-07T11:50:07;5.00;5.00;5.00;;
53702;Laerm;39594;52.194;9.886;2023-05-07T11:52:33;5.00;5.00;5.00;;
53702;Laerm;39594;52.194;9.886;2023-05-07T11:54:59;5.00;5.00;5.00;;
53702;Laerm;39594;52.194;9.886;2023-05-07T11:57:25;5.00;5.00;5.00;;
53702;Laerm;39594;52.194;9.886;2023-05-07T11:59:54;5.00;5.00;5.00;;
53702;Laerm;39594;52.194;9.886;2023-05-07T12:02:19;5.00;5.00;5.00;;
53702;Laerm;39594;52.194;9.886;2023-05-07T12:04:45;5.00;5.00;5.00;;
53702;Laerm;39594;52.194;9.886;2023-05-07T12:07:16;5.00;5.00;5.00;;
53702;Laerm;39594;52.194;9.886;2023-05-07T12:09:43;5.00;5.00;5.00;;
53702;Laerm;39594;52.194;9.886;2023-05-07T12:12:08;5.00;5.00;5.00;;
53702;Laerm;39594;52.194;9.886;2023-05-07T12:14:40;5.00;5.00;5.00;;
53702;Laerm;39594;52.194;9.886;2023-05-07T12:17:05;5.00;5.00;5.00;;
53702;Laerm;39594;52.194;9.886;2023-05-07T12:19:31;5.00;5.00;5.00;;
53702;Laerm;39594;52.194;9.886;2023-05-07T12:21:58;5.00;5.00;5.00;;
53702;Laerm;39594;52.194;9.886;2023-05-07T12:24:23;5.00;5.00;5.00;;
53702;Laerm;39594;52.194;9.886;2023-05-07T12:26:48;5.00;5.00;5.00;;
53702;Laerm;39594;52.194;9.886;2023-05-07T12:29:14;98.30;5.00;116.19;;
53702;Laerm;39594;52.194;9.886;2023-05-07T12:31:42;5.00;5.00;5.00;;
53702;Laerm;39594;52.194;9.886;2023-05-07T12:34:08;5.00;5.00;5.00;;
53702;Laerm;39594;52.194;9.886;2023-05-07T12:36:37;5.00;5.00;5.00;;
53702;Laerm;39594;52.194;9.886;2023-05-07T12:39:04;5.00;5.00;5.00;;
53702;Laerm;39594;52.194;9.886;2023-05-07T12:41:29;5.00;5.00;5.00;;
53702;Laerm;39594;52.194;9.886;2023-05-07T12:43:56;5.00;5.00;5.00;;
53702;Laerm;39594;52.194;9.886;2023-05-07T12:46:21;5.00;5.00;5.00;;
53702;Laerm;39594;52.194;9.886;2023-05-07T12:48:48;5.00;5.00;5.00;;
53702;Laerm;39594;52.194;9.886;2023-05-07T12:51:13;5.00;5.00;5.00;;
53702;Laerm;39594;52.194;9.886;2023-05-07T12:53:40;5.00;5.00;5.00;;
53702;Laerm;39594;52.194;9.886;2023-05-07T12:56:07;5.00;5.00;5.00;;
53702;Laerm;39594;52.194;9.886;2023-05-07T12:58:33;5.00;5.00;5.00;;
53702;Laerm;39594;52.194;9.886;2023-05-07T13:00:59;5.00;5.00;5.00;;
53702;Laerm;39594;52.194;9.886;2023-05-07T13:05:50;5.00;5.00;5.00;;
53702;Laerm;39594;52.194;9.886;2023-05-07T13:08:25;5.00;5.00;5.00;;
53702;Laerm;39594;52.194;9.886;2023-05-07T13:10:51;5.00;5.00;5.00;;
53702;Laerm;39594;52.194;9.886;2023-05-07T13:13:17;5.00;5.00;5.00;;
53702;Laerm;39594;52.194;9.886;2023-05-07T13:15:42;5.00;5.00;5.00;;
53702;Laerm;39594;52.194;9.886;2023-05-07T13:18:07;5.00;5.00;5.00;;
53702;Laerm;39594;52.194;9.886;2023-05-07T13:20:35;5.00;5.00;5.00;;
53702;Laerm;39594;52.194;9.886;2023-05-07T13:23:00;5.00;5.00;5.00;;
53702;Laerm;39594;52.194;9.886;2023-05-07T13:25:27;98.92;5.00;115.07;;
53702;Laerm;39594;52.194;9.886;2023-05-07T13:27:52;100.05;5.00;115.61;;
53702;Laerm;39594;52.194;9.886;2023-05-07T13:30:17;84.38;5.00;109.88;;
53702;Laerm;39594;52.194;9.886;2023-05-07T13:32:42;59.84;41.33;72.64;;
53702;Laerm;39594;52.194;9.886;2023-05-07T13:35:07;88.49;5.00;112.60;;
53702;Laerm;39594;52.194;9.886;2023-05-07T13:37:32;82.61;42.03;109.52;;
53702;Laerm;39594;52.194;9.886;2023-05-07T13:39:58;94.94;5.00;114.82;;
53702;Laerm;39594;52.194;9.886;2023-05-07T13:42:23;5.00;5.00;5.00;;
53702;Laerm;39594;52.194;9.886;2023-05-07T13:44:48;99.84;5.00;116.03;;
53702;Laerm;39594;52.194;9.886;2023-05-07T13:47:13;97.38;5.00;115.52;;
53702;Laerm;39594;52.194;9.886;2023-05-07T13:49:38;96.08;5.00;113.03;;
53702;Laerm;39594;52.194;9.886;2023-05-07T13:52:04;86.86;5.00;111.77;;
53702;Laerm;39594;52.194;9.886;2023-05-07T13:54:29;63.39;40.23;94.66;;
53702;Laerm;39594;52.194;9.886;2023-05-07T13:56:54;70.23;41.22;102.55;;
53702;Laerm;39594;52.194;9.886;2023-05-07T13:59:19;59.70;41.75;73.82;;
53702;Laerm;39594;52.194;9.886;2023-05-07T14:01:45;61.16;41.30;86.21;;
53702;Laerm;39594;52.194;9.886;2023-05-07T14:04:10;61.26;40.03;86.22;;
53702;Laerm;39594;52.194;9.886;2023-05-07T14:06:35;72.49;41.96;102.84;;
53702;Laerm;39594;52.194;9.886;2023-05-07T14:09:01;85.30;42.59;109.75;;
53702;Laerm;39594;52.194;9.886;2023-05-07T14:11:26;64.60;42.47;73.60;;
53702;Laerm;39594;52.194;9.886;2023-05-07T14:13:51;59.88;38.52;74.12;;
53702;Laerm;39594;52.194;9.886;2023-05-07T14:16:16;62.05;41.46;73.71;;
53702;Laerm;39594;52.194;9.886;2023-05-07T14:18:42;60.84;40.98;86.25;;
53702;Laerm;39594;52.194;9.886;2023-05-07T14:21:08;68.15;40.43;97.80;;
53702;Laerm;39594;52.194;9.886;2023-05-07T14:23:34;60.87;39.46;86.30;;
53702;Laerm;39594;52.194;9.886;2023-05-07T14:25:59;61.32;42.22;86.22;;
53702;Laerm;39594;52.194;9.886;2023-05-07T14:28:24;63.76;35.36;86.31;;
53702;Laerm;39594;52.194;9.886;2023-05-07T14:30:50;62.65;36.91;86.21;;
53702;Laerm;39594;52.194;9.886;2023-05-07T14:33:15;61.06;40.43;77.65;;
53702;Laerm;39594;52.194;9.886;2023-05-07T14:35:40;64.08;43.77;86.30;;